sensor_id;sensor_type;location;lat;lon;timestamp;P1;durP1;ratioP1;P2;durP2;ratioP2
74401;SDS011;62837;51.082;13.744;2023-03-20T00:00:22;9.10;;;4.90;;
74401;SDS011;62837;51.082;13.744;2023-03-20T00:02:58;8.80;;;5.40;;
74401;SDS011;62837;51.082;13.744;2023-03-20T00:05:29;11.20;;;6.00;;
74401;SDS011;62837;51.082;13.744;2023-03-20T00:08:00;9.50;;;5.50;;
74401;SDS011;62837;51.082;13.744;2023-03-20T00:10:32;9.70;;;5.20;;
74401;SDS011;62837;51.082;13.744;2023-03-20T00:13:04;10.50;;;5.60;;
74401;SDS011;62837;51.082;13.744;2023-03-20T00:15:42;11.10;;;6.10;;
74401;SDS011;62837;51.082;13.744;2023-03-20T00:18:14;9.40;;;6.10;;
74401;SDS011;62837;51.082;13.744;2023-03-20T00:20:48;11.90;;;5.80;;
74401;SDS011;62837;51.082;13.744;2023-03-20T00:23:20;11.50;;;5.70;;
74401;SDS011;62837;51.082;13.744;2023-03-20T00:25:51;9.20;;;6.10;;
74401;SDS011;62837;51.082;13.744;2023-03-20T00:28:35;9.10;;;5.50;;
74401;SDS011;62837;51.082;13.744;2023-03-20T00:31:14;9.50;;;6.10;;
74401;SDS011;62837;51.082;13.744;2023-03-20T00:33:52;10.40;;;6.60;;
74401;SDS011;62837;51.082;13.744;2023-03-20T00:36:26;8.80;;;6.00;;
74401;SDS011;62837;51.082;13.744;2023-03-20T00:38:58;9.00;;;6.00;;
74401;SDS011;62837;51.082;13.744;2023-03-20T00:41:30;11.40;;;7.30;;
74401;SDS011;62837;51.082;13.744;2023-03-20T00:44:05;10.40;;;6.20;;
74401;SDS011;62837;51.082;13.744;2023-03-20T00:46:48;9.50;;;6.40;;
74401;SDS011;62837;51.082;13.744;2023-03-20T00:49:23;10.80;;;6.90;;
74401;SDS011;62837;51.082;13.744;2023-03-20T00:51:56;10.30;;;6.10;;
74401;SDS011;62837;51.082;13.744;2023-03-20T00:54:28;9.80;;;5.70;;
74401;SDS011;62837;51.082;13.744;2023-03-20T00:57:00;8.20;;;5.80;;
74401;SDS011;62837;51.082;13.744;2023-03-20T00:59:35;8.40;;;5.30;;
74401;SDS011;62837;51.082;13.744;2023-03-20T01:02:09;10.90;;;6.00;;
74401;SDS011;62837;51.082;13.744;2023-03-20T01:04:41;10.80;;;6.30;;
74401;SDS011;62837;51.082;13.744;2023-03-20T01:07:12;9.00;;;5.90;;
74401;SDS011;62837;51.082;13.744;2023-03-20T01:09:45;8.70;;;5.10;;
74401;SDS011;62837;51.082;13.744;2023-03-20T01:12:15;7.00;;;4.70;;
74401;SDS011;62837;51.082;13.744;2023-03-20T01:14:46;6.30;;;4.30;;
74401;SDS011;62837;51.082;13.744;2023-03-20T01:17:23;6.40;;;4.20;;
74401;SDS011;62837;51.082;13.744;2023-03-20T01:19:55;7.80;;;4.70;;
74401;SDS011;62837;51.082;13.744;2023-03-20T01:22:26;6.10;;;3.90;;
74401;SDS011;62837;51.082;13.744;2023-03-20T01:24:57;7.10;;;3.80;;
74401;SDS011;62837;51.082;13.744;2023-03-20T01:27:29;5.50;;;3.60;;
74401;SDS011;62837;51.082;13.744;2023-03-20T01:30:00;5.60;;;3.70;;
74401;SDS011;62837;51.082;13.744;2023-03-20T01:32:31;7.90;;;4.60;;
74401;SDS011;62837;51.082;13.744;2023-03-20T01:35:02;8.30;;;4.30;;
74401;SDS011;62837;51.082;13.744;2023-03-20T01:37:35;9.30;;;5.20;;
74401;SDS011;62837;51.082;13.744;2023-03-20T01:40:10;10.40;;;5.50;;
74401;SDS011;62837;51.082;13.744;2023-03-20T01:42:51;9.50;;;5.40;;
74401;SDS011;62837;51.082;13.744;2023-03-20T01:45:23;9.60;;;6.70;;
74401;SDS011;62837;51.082;13.744;2023-03-20T01:47:59;9.00;;;5.60;;
74401;SDS011;62837;51.082;13.744;2023-03-20T01:50:41;22.20;;;9.80;;
74401;SDS011;62837;51.082;13.744;2023-03-20T01:53:15;21.70;;;10.40;;
74401;SDS011;62837;51.082;13.744;2023-03-20T01:55:53;15.10;;;8.00;;
74401;SDS011;62837;51.082;13.744;2023-03-20T01:58:34;15.60;;;7.90;;
74401;SDS011;62837;51.082;13.744;2023-03-20T02:01:09;11.70;;;6.20;;
74401;SDS011;62837;51.082;13.744;2023-03-20T02:03:44;14.70;;;8.30;;
74401;SDS011;62837;51.082;13.744;2023-03-20T02:06:33;10.70;;;6.70;;
74401;SDS011;62837;51.082;13.744;2023-03-20T02:09:13;15.00;;;6.80;;
74401;SDS011;62837;51.082;13.744;2023-03-20T02:11:45;11.70;;;7.10;;
74401;SDS011;62837;51.082;13.744;2023-03-20T02:14:18;10.80;;;6.60;;
74401;SDS011;62837;51.082;13.744;2023-03-20T02:16:53;9.90;;;6.30;;
74401;SDS011;62837;51.082;13.744;2023-03-20T02:19:39;10.70;;;6.10;;
74401;SDS011;62837;51.082;13.744;2023-03-20T02:22:37;8.40;;;5.90;;
74401;SDS011;62837;51.082;13.744;2023-03-20T02:38:13;11.30;;;6.60;;
74401;SDS011;62837;51.082;13.744;2023-03-20T02:41:09;8.90;;;6.00;;
74401;SDS011;62837;51.082;13.744;2023-03-20T02:43:51;11.20;;;6.90;;
74401;SDS011;62837;51.082;13.744;2023-03-20T02:46:33;10.90;;;6.30;;
74401;SDS011;62837;51.082;13.744;2023-03-20T02:49:17;9.30;;;5.80;;
74401;SDS011;62837;51.082;13.744;2023-03-20T02:52:02;9.50;;;5.90;;
74401;SDS011;62837;51.082;13.744;2023-03-20T02:54:45;10.70;;;6.80;;
74401;SDS011;62837;51.082;13.744;2023-03-20T02:57:26;9.10;;;6.10;;
74401;SDS011;62837;51.082;13.744;2023-03-20T03:00:08;8.60;;;5.10;;
74401;SDS011;62837;51.082;13.744;2023-03-20T03:02:46;11.60;;;5.50;;
74401;SDS011;62837;51.082;13.744;2023-03-20T03:05:23;7.80;;;5.10;;
74401;SDS011;62837;51.082;13.744;2023-03-20T03:08:00;10.30;;;5.50;;
74401;SDS011;62837;51.082;13.744;2023-03-20T03:10:35;8.00;;;5.00;;
74401;SDS011;62837;51.082;13.744;2023-03-20T03:13:11;7.00;;;4.50;;
74401;SDS011;62837;51.082;13.744;2023-03-20T03:15:47;7.20;;;4.90;;
74401;SDS011;62837;51.082;13.744;2023-03-20T03:18:21;10.30;;;4.90;;
74401;SDS011;62837;51.082;13.744;2023-03-20T03:20:55;10.00;;;5.90;;
74401;SDS011;62837;51.082;13.744;2023-03-20T03:23:29;8.30;;;5.20;;
74401;SDS011;62837;51.082;13.744;2023-03-20T03:26:03;8.70;;;6.50;;
74401;SDS011;62837;51.082;13.744;2023-03-20T03:28:39;10.70;;;7.00;;
74401;SDS011;62837;51.082;13.744;2023-03-20T03:31:15;9.60;;;5.80;;
74401;SDS011;62837;51.082;13.744;2023-03-20T03:36:19;9.30;;;5.90;;
74401;SDS011;62837;51.082;13.744;2023-03-20T03:38:57;9.40;;;6.00;;
74401;SDS011;62837;51.082;13.744;2023-03-20T03:41:31;8.40;;;4.90;;
74401;SDS011;62837;51.082;13.744;2023-03-20T03:44:10;9.20;;;6.20;;
74401;SDS011;62837;51.082;13.744;2023-03-20T03:46:44;8.70;;;5.60;;
74401;SDS011;62837;51.082;13.744;2023-03-20T03:49:20;11.40;;;6.30;;
74401;SDS011;62837;51.082;13.744;2023-03-20T03:51:56;9.40;;;6.00;;
74401;SDS011;62837;51.082;13.744;2023-03-20T03:54:31;11.40;;;6.50;;
74401;SDS011;62837;51.082;13.744;2023-03-20T03:57:36;10.00;;;6.50;;
74401;SDS011;62837;51.082;13.744;2023-03-20T04:00:14;9.30;;;5.30;;
74401;SDS011;62837;51.082;13.744;2023-03-20T04:02:48;7.40;;;5.20;;
74401;SDS011;62837;51.082;13.744;2023-03-20T04:05:21;8.80;;;5.30;;
74401;SDS011;62837;51.082;13.744;2023-03-20T04:07:58;10.50;;;6.00;;
74401;SDS011;62837;51.082;13.744;2023-03-20T04:10:31;9.10;;;5.00;;
74401;SDS011;62837;51.082;13.744;2023-03-20T04:13:02;9.90;;;6.30;;
74401;SDS011;62837;51.082;13.744;2023-03-20T04:15:33;9.80;;;6.20;;
74401;SDS011;62837;51.082;13.744;2023-03-20T04:18:06;9.90;;;5.60;;
74401;SDS011;62837;51.082;13.744;2023-03-20T04:20:41;11.10;;;6.30;;
74401;SDS011;62837;51.082;13.744;2023-03-20T04:23:12;10.20;;;6.20;;
74401;SDS011;62837;51.082;13.744;2023-03-20T04:25:43;12.50;;;7.40;;
74401;SDS011;62837;51.082;13.744;2023-03-20T04:28:14;11.50;;;7.00;;
74401;SDS011;62837;51.082;13.744;2023-03-20T04:31:09;11.50;;;6.30;;
74401;SDS011;62837;51.082;13.744;2023-03-20T04:34:04;9.70;;;6.60;;
74401;SDS011;62837;51.082;13.744;2023-03-20T04:36:46;9.10;;;5.80;;
74401;SDS011;62837;51.082;13.744;2023-03-20T04:39:17;12.30;;;6.20;;
74401;SDS011;62837;51.082;13.744;2023-03-20T04:41:50;10.60;;;6.30;;
74401;SDS011;62837;51.082;13.744;2023-03-20T04:44:21;8.80;;;5.60;;
74401;SDS011;62837;51.082;13.744;2023-03-20T04:46:51;8.50;;;5.30;;
74401;SDS011;62837;51.082;13.744;2023-03-20T04:49:22;8.00;;;5.50;;
74401;SDS011;62837;51.082;13.744;2023-03-20T04:51:53;8.00;;;5.50;;
74401;SDS011;62837;51.082;13.744;2023-03-20T04:54:38;8.70;;;5.60;;
74401;SDS011;62837;51.082;13.744;2023-03-20T04:57:08;10.00;;;5.90;;
74401;SDS011;62837;51.082;13.744;2023-03-20T04:59:39;7.00;;;4.50;;
74401;SDS011;62837;51.082;13.744;2023-03-20T05:02:10;9.20;;;5.30;;
74401;SDS011;62837;51.082;13.744;2023-03-20T05:04:41;7.60;;;5.40;;
74401;SDS011;62837;51.082;13.744;2023-03-20T05:07:12;7.60;;;5.20;;
74401;SDS011;62837;51.082;13.744;2023-03-20T05:09:51;7.60;;;4.90;;
74401;SDS011;62837;51.082;13.744;2023-03-20T05:12:23;7.80;;;5.00;;
74401;SDS011;62837;51.082;13.744;2023-03-20T05:15:22;8.10;;;5.40;;
74401;SDS011;62837;51.082;13.744;2023-03-20T05:18:11;8.90;;;5.40;;
74401;SDS011;62837;51.082;13.744;2023-03-20T05:21:01;8.10;;;5.40;;
74401;SDS011;62837;51.082;13.744;2023-03-20T05:24:06;7.80;;;4.50;;
74401;SDS011;62837;51.082;13.744;2023-03-20T05:26:48;10.00;;;5.80;;
74401;SDS011;62837;51.082;13.744;2023-03-20T05:29:31;7.50;;;5.30;;
74401;SDS011;62837;51.082;13.744;2023-03-20T05:32:02;6.00;;;4.10;;
74401;SDS011;62837;51.082;13.744;2023-03-20T05:34:40;4.90;;;3.30;;
74401;SDS011;62837;51.082;13.744;2023-03-20T05:37:18;6.30;;;4.40;;
74401;SDS011;62837;51.082;13.744;2023-03-20T05:40:06;4.40;;;3.00;;
74401;SDS011;62837;51.082;13.744;2023-03-20T05:42:56;6.30;;;3.60;;
74401;SDS011;62837;51.082;13.744;2023-03-20T05:45:36;3.60;;;2.30;;
74401;SDS011;62837;51.082;13.744;2023-03-20T05:48:35;3.00;;;2.20;;
74401;SDS011;62837;51.082;13.744;2023-03-20T05:51:41;3.00;;;1.70;;
74401;SDS011;62837;51.082;13.744;2023-03-20T05:54:23;3.20;;;1.90;;
74401;SDS011;62837;51.082;13.744;2023-03-20T05:57:02;3.40;;;1.70;;
74401;SDS011;62837;51.082;13.744;2023-03-20T05:59:52;2.20;;;1.60;;
74401;SDS011;62837;51.082;13.744;2023-03-20T06:02:41;2.80;;;1.70;;
74401;SDS011;62837;51.082;13.744;2023-03-20T06:05:38;2.50;;;1.60;;
74401;SDS011;62837;51.082;13.744;2023-03-20T06:08:09;3.00;;;2.00;;
74401;SDS011;62837;51.082;13.744;2023-03-20T06:10:39;2.60;;;1.60;;
74401;SDS011;62837;51.082;13.744;2023-03-20T06:13:10;3.00;;;2.30;;
74401;SDS011;62837;51.082;13.744;2023-03-20T06:15:41;4.10;;;2.30;;
74401;SDS011;62837;51.082;13.744;2023-03-20T06:18:15;3.40;;;1.60;;
74401;SDS011;62837;51.082;13.744;2023-03-20T06:20:47;3.60;;;1.50;;
74401;SDS011;62837;51.082;13.744;2023-03-20T06:23:22;3.10;;;1.40;;
74401;SDS011;62837;51.082;13.744;2023-03-20T06:25:53;4.60;;;2.10;;
74401;SDS011;62837;51.082;13.744;2023-03-20T06:28:25;4.00;;;1.80;;
74401;SDS011;62837;51.082;13.744;2023-03-20T06:31:01;5.00;;;2.00;;
74401;SDS011;62837;51.082;13.744;2023-03-20T06:33:33;3.50;;;1.90;;
74401;SDS011;62837;51.082;13.744;2023-03-20T06:36:05;2.90;;;1.80;;
74401;SDS011;62837;51.082;13.744;2023-03-20T06:38:37;2.70;;;1.50;;
74401;SDS011;62837;51.082;13.744;2023-03-20T06:41:12;2.10;;;1.30;;
74401;SDS011;62837;51.082;13.744;2023-03-20T06:44:01;3.00;;;1.70;;
74401;SDS011;62837;51.082;13.744;2023-03-20T06:46:51;4.80;;;2.10;;
74401;SDS011;62837;51.082;13.744;2023-03-20T06:49:23;3.40;;;2.00;;
74401;SDS011;62837;51.082;13.744;2023-03-20T06:51:55;4.30;;;2.00;;
74401;SDS011;62837;51.082;13.744;2023-03-20T06:54:27;5.00;;;1.70;;
74401;SDS011;62837;51.082;13.744;2023-03-20T06:56:58;2.70;;;1.60;;
74401;SDS011;62837;51.082;13.744;2023-03-20T06:59:28;3.70;;;2.00;;
74401;SDS011;62837;51.082;13.744;2023-03-20T07:01:59;2.80;;;1.50;;
74401;SDS011;62837;51.082;13.744;2023-03-20T07:04:30;3.10;;;1.70;;
74401;SDS011;62837;51.082;13.744;2023-03-20T07:07:01;2.80;;;2.10;;
74401;SDS011;62837;51.082;13.744;2023-03-20T07:09:34;2.20;;;1.10;;
74401;SDS011;62837;51.082;13.744;2023-03-20T07:12:08;3.60;;;1.70;;
74401;SDS011;62837;51.082;13.744;2023-03-20T07:14:42;4.40;;;1.40;;
74401;SDS011;62837;51.082;13.744;2023-03-20T07:17:17;2.80;;;1.50;;
74401;SDS011;62837;51.082;13.744;2023-03-20T07:19:49;5.10;;;1.20;;
74401;SDS011;62837;51.082;13.744;2023-03-20T07:22:21;1.90;;;1.20;;
74401;SDS011;62837;51.082;13.744;2023-03-20T07:25:03;4.10;;;1.60;;
74401;SDS011;62837;51.082;13.744;2023-03-20T07:27:36;3.60;;;2.40;;
74401;SDS011;62837;51.082;13.744;2023-03-20T07:30:09;2.80;;;1.50;;
74401;SDS011;62837;51.082;13.744;2023-03-20T07:32:40;3.30;;;1.70;;
74401;SDS011;62837;51.082;13.744;2023-03-20T07:35:12;3.00;;;1.50;;
74401;SDS011;62837;51.082;13.744;2023-03-20T07:37:43;4.30;;;2.40;;
74401;SDS011;62837;51.082;13.744;2023-03-20T07:40:15;2.60;;;1.60;;
74401;SDS011;62837;51.082;13.744;2023-03-20T07:42:55;4.40;;;1.80;;
74401;SDS011;62837;51.082;13.744;2023-03-20T07:45:44;3.00;;;1.90;;
74401;SDS011;62837;51.082;13.744;2023-03-20T07:48:19;5.30;;;1.70;;
74401;SDS011;62837;51.082;13.744;2023-03-20T07:50:50;3.60;;;1.70;;
74401;SDS011;62837;51.082;13.744;2023-03-20T07:53:21;3.30;;;1.70;;
74401;SDS011;62837;51.082;13.744;2023-03-20T07:55:52;3.60;;;1.60;;
74401;SDS011;62837;51.082;13.744;2023-03-20T07:58:22;5.20;;;1.90;;
74401;SDS011;62837;51.082;13.744;2023-03-20T08:00:53;3.30;;;1.80;;
74401;SDS011;62837;51.082;13.744;2023-03-20T08:03:26;5.10;;;1.70;;
74401;SDS011;62837;51.082;13.744;2023-03-20T08:05:57;3.30;;;1.80;;
74401;SDS011;62837;51.082;13.744;2023-03-20T08:08:28;2.80;;;1.60;;
74401;SDS011;62837;51.082;13.744;2023-03-20T08:10:59;3.20;;;1.90;;
74401;SDS011;62837;51.082;13.744;2023-03-20T08:13:30;2.80;;;1.80;;
74401;SDS011;62837;51.082;13.744;2023-03-20T08:16:01;2.50;;;1.70;;
74401;SDS011;62837;51.082;13.744;2023-03-20T08:18:32;3.90;;;1.30;;
74401;SDS011;62837;51.082;13.744;2023-03-20T08:21:04;4.60;;;2.30;;
74401;SDS011;62837;51.082;13.744;2023-03-20T08:23:35;4.60;;;1.80;;
74401;SDS011;62837;51.082;13.744;2023-03-20T08:26:06;3.20;;;1.90;;
74401;SDS011;62837;51.082;13.744;2023-03-20T08:28:36;4.60;;;2.30;;
74401;SDS011;62837;51.082;13.744;2023-03-20T08:31:15;3.20;;;1.60;;
74401;SDS011;62837;51.082;13.744;2023-03-20T08:33:46;4.40;;;1.90;;
74401;SDS011;62837;51.082;13.744;2023-03-20T08:36:17;4.00;;;2.10;;
74401;SDS011;62837;51.082;13.744;2023-03-20T08:38:48;2.60;;;1.60;;
74401;SDS011;62837;51.082;13.744;2023-03-20T08:41:19;2.90;;;2.30;;
74401;SDS011;62837;51.082;13.744;2023-03-20T08:43:49;12.90;;;7.80;;
74401;SDS011;62837;51.082;13.744;2023-03-20T08:46:20;5.30;;;2.40;;
74401;SDS011;62837;51.082;13.744;2023-03-20T08:48:51;7.30;;;4.60;;
74401;SDS011;62837;51.082;13.744;2023-03-20T08:51:22;5.80;;;2.90;;
74401;SDS011;62837;51.082;13.744;2023-03-20T08:53:54;4.10;;;2.80;;
74401;SDS011;62837;51.082;13.744;2023-03-20T08:56:25;5.50;;;3.20;;
74401;SDS011;62837;51.082;13.744;2023-03-20T08:58:55;5.60;;;3.30;;
74401;SDS011;62837;51.082;13.744;2023-03-20T09:01:26;5.30;;;3.80;;
74401;SDS011;62837;51.082;13.744;2023-03-20T09:04:14;6.60;;;4.40;;
74401;SDS011;62837;51.082;13.744;2023-03-20T09:06:45;9.30;;;5.20;;
74401;SDS011;62837;51.082;13.744;2023-03-20T09:09:17;9.90;;;6.40;;
74401;SDS011;62837;51.082;13.744;2023-03-20T09:11:53;10.20;;;6.20;;
74401;SDS011;62837;51.082;13.744;2023-03-20T09:14:25;9.00;;;5.70;;
74401;SDS011;62837;51.082;13.744;2023-03-20T09:16:56;9.90;;;5.70;;
74401;SDS011;62837;51.082;13.744;2023-03-20T09:19:27;10.80;;;6.90;;
74401;SDS011;62837;51.082;13.744;2023-03-20T09:21:58;10.30;;;6.10;;
74401;SDS011;62837;51.082;13.744;2023-03-20T09:24:29;9.60;;;6.10;;
74401;SDS011;62837;51.082;13.744;2023-03-20T09:27:00;9.50;;;5.20;;
74401;SDS011;62837;51.082;13.744;2023-03-20T09:29:31;8.80;;;5.70;;
74401;SDS011;62837;51.082;13.744;2023-03-20T09:32:02;9.20;;;6.40;;
74401;SDS011;62837;51.082;13.744;2023-03-20T09:34:33;10.00;;;5.60;;
74401;SDS011;62837;51.082;13.744;2023-03-20T09:37:03;10.20;;;6.10;;
74401;SDS011;62837;51.082;13.744;2023-03-20T09:39:34;7.40;;;4.70;;
74401;SDS011;62837;51.082;13.744;2023-03-20T09:42:07;11.20;;;6.80;;
74401;SDS011;62837;51.082;13.744;2023-03-20T09:44:54;9.90;;;6.10;;
74401;SDS011;62837;51.082;13.744;2023-03-20T09:47:33;13.30;;;8.10;;
74401;SDS011;62837;51.082;13.744;2023-03-20T09:50:16;13.50;;;7.90;;
74401;SDS011;62837;51.082;13.744;2023-03-20T09:52:59;11.60;;;7.30;;
74401;SDS011;62837;51.082;13.744;2023-03-20T09:55:35;13.80;;;8.30;;
74401;SDS011;62837;51.082;13.744;2023-03-20T09:58:11;14.90;;;9.30;;
74401;SDS011;62837;51.082;13.744;2023-03-20T10:00:45;16.80;;;9.50;;
74401;SDS011;62837;51.082;13.744;2023-03-20T10:03:18;18.00;;;10.30;;
74401;SDS011;62837;51.082;13.744;2023-03-20T10:05:55;25.90;;;12.20;;
74401;SDS011;62837;51.082;13.744;2023-03-20T10:08:28;18.70;;;10.70;;
74401;SDS011;62837;51.082;13.744;2023-03-20T10:11:06;22.40;;;10.80;;
74401;SDS011;62837;51.082;13.744;2023-03-20T10:13:56;22.80;;;11.60;;
74401;SDS011;62837;51.082;13.744;2023-03-20T10:16:39;21.00;;;11.30;;
74401;SDS011;62837;51.082;13.744;2023-03-20T10:19:20;14.10;;;8.00;;
74401;SDS011;62837;51.082;13.744;2023-03-20T10:21:56;21.50;;;10.80;;
74401;SDS011;62837;51.082;13.744;2023-03-20T10:24:37;17.70;;;9.50;;
74401;SDS011;62837;51.082;13.744;2023-03-20T10:27:13;18.10;;;9.40;;
74401;SDS011;62837;51.082;13.744;2023-03-20T10:29:52;19.30;;;10.80;;
74401;SDS011;62837;51.082;13.744;2023-03-20T10:32:34;19.00;;;9.70;;
74401;SDS011;62837;51.082;13.744;2023-03-20T10:35:12;18.30;;;10.40;;
74401;SDS011;62837;51.082;13.744;2023-03-20T10:37:53;18.90;;;10.70;;
74401;SDS011;62837;51.082;13.744;2023-03-20T10:40:35;17.10;;;9.50;;
74401;SDS011;62837;51.082;13.744;2023-03-20T10:43:10;16.80;;;9.50;;
74401;SDS011;62837;51.082;13.744;2023-03-20T10:45:46;15.80;;;9.50;;
74401;SDS011;62837;51.082;13.744;2023-03-20T10:48:21;15.80;;;9.40;;
74401;SDS011;62837;51.082;13.744;2023-03-20T10:50:59;15.00;;;9.10;;
74401;SDS011;62837;51.082;13.744;2023-03-20T10:53:33;16.30;;;9.10;;
74401;SDS011;62837;51.082;13.744;2023-03-20T10:56:06;16.90;;;9.90;;
74401;SDS011;62837;51.082;13.744;2023-03-20T10:58:45;15.50;;;10.50;;
74401;SDS011;62837;51.082;13.744;2023-03-20T11:01:18;14.40;;;8.80;;
74401;SDS011;62837;51.082;13.744;2023-03-20T11:03:50;13.30;;;8.30;;
74401;SDS011;62837;51.082;13.744;2023-03-20T11:06:24;14.10;;;9.00;;
74401;SDS011;62837;51.082;13.744;2023-03-20T11:09:07;14.50;;;8.80;;
74401;SDS011;62837;51.082;13.744;2023-03-20T11:11:44;11.80;;;7.70;;
74401;SDS011;62837;51.082;13.744;2023-03-20T11:14:17;13.10;;;8.20;;
74401;SDS011;62837;51.082;13.744;2023-03-20T11:16:50;10.80;;;7.20;;
74401;SDS011;62837;51.082;13.744;2023-03-20T11:19:22;12.00;;;7.60;;
74401;SDS011;62837;51.082;13.744;2023-03-20T11:21:54;11.80;;;7.90;;
74401;SDS011;62837;51.082;13.744;2023-03-20T11:24:31;10.80;;;7.10;;
74401;SDS011;62837;51.082;13.744;2023-03-20T11:27:05;12.60;;;8.30;;
74401;SDS011;62837;51.082;13.744;2023-03-20T11:29:38;13.00;;;7.50;;
74401;SDS011;62837;51.082;13.744;2023-03-20T11:32:16;14.00;;;7.60;;
74401;SDS011;62837;51.082;13.744;2023-03-20T11:34:55;11.50;;;7.90;;
74401;SDS011;62837;51.082;13.744;2023-03-20T11:37:42;13.10;;;7.20;;
74401;SDS011;62837;51.082;13.744;2023-03-20T11:40:15;13.80;;;7.50;;
74401;SDS011;62837;51.082;13.744;2023-03-20T11:42:54;12.00;;;7.90;;
74401;SDS011;62837;51.082;13.744;2023-03-20T11:45:33;12.90;;;7.70;;
74401;SDS011;62837;51.082;13.744;2023-03-20T11:48:05;11.80;;;6.60;;
74401;SDS011;62837;51.082;13.744;2023-03-20T11:50:43;12.80;;;7.90;;
74401;SDS011;62837;51.082;13.744;2023-03-20T11:53:20;10.30;;;7.10;;
74401;SDS011;62837;51.082;13.744;2023-03-20T11:56:04;12.60;;;8.00;;
74401;SDS011;62837;51.082;13.744;2023-03-20T11:58:45;15.20;;;8.10;;
74401;SDS011;62837;51.082;13.744;2023-03-20T12:01:22;13.00;;;7.50;;
74401;SDS011;62837;51.082;13.744;2023-03-20T12:03:59;14.30;;;8.20;;
74401;SDS011;62837;51.082;13.744;2023-03-20T12:06:39;15.90;;;9.80;;
74401;SDS011;62837;51.082;13.744;2023-03-20T12:09:28;14.70;;;8.70;;
74401;SDS011;62837;51.082;13.744;2023-03-20T12:12:06;16.40;;;9.50;;
74401;SDS011;62837;51.082;13.744;2023-03-20T12:14:44;18.10;;;9.60;;
74401;SDS011;62837;51.082;13.744;2023-03-20T12:17:26;13.70;;;8.40;;
74401;SDS011;62837;51.082;13.744;2023-03-20T12:20:04;17.30;;;9.50;;
74401;SDS011;62837;51.082;13.744;2023-03-20T12:22:44;18.10;;;9.40;;
74401;SDS011;62837;51.082;13.744;2023-03-20T12:25:23;16.40;;;9.90;;
74401;SDS011;62837;51.082;13.744;2023-03-20T12:28:00;14.10;;;8.50;;
74401;SDS011;62837;51.082;13.744;2023-03-20T12:30:42;14.80;;;9.10;;
74401;SDS011;62837;51.082;13.744;2023-03-20T12:33:25;13.70;;;8.70;;
74401;SDS011;62837;51.082;13.744;2023-03-20T12:36:07;15.80;;;9.40;;
74401;SDS011;62837;51.082;13.744;2023-03-20T12:38:43;17.60;;;9.80;;
74401;SDS011;62837;51.082;13.744;2023-03-20T12:41:16;17.00;;;10.00;;
74401;SDS011;62837;51.082;13.744;2023-03-20T12:46:50;18.60;;;10.30;;
74401;SDS011;62837;51.082;13.744;2023-03-20T12:49:33;19.00;;;11.80;;
74401;SDS011;62837;51.082;13.744;2023-03-20T12:52:14;19.70;;;11.00;;
74401;SDS011;62837;51.082;13.744;2023-03-20T12:54:57;18.40;;;11.80;;
74401;SDS011;62837;51.082;13.744;2023-03-20T12:57:36;17.50;;;10.50;;
74401;SDS011;62837;51.082;13.744;2023-03-20T13:00:19;19.10;;;10.70;;
74401;SDS011;62837;51.082;13.744;2023-03-20T13:03:05;18.50;;;10.70;;
74401;SDS011;62837;51.082;13.744;2023-03-20T13:05:49;20.30;;;11.30;;
74401;SDS011;62837;51.082;13.744;2023-03-20T13:08:33;19.80;;;11.30;;
74401;SDS011;62837;51.082;13.744;2023-03-20T13:13:54;21.80;;;12.30;;
74401;SDS011;62837;51.082;13.744;2023-03-20T13:16:33;20.30;;;12.70;;
74401;SDS011;62837;51.082;13.744;2023-03-20T13:19:15;17.00;;;10.30;;
74401;SDS011;62837;51.082;13.744;2023-03-20T13:21:55;21.70;;;10.20;;
74401;SDS011;62837;51.082;13.744;2023-03-20T13:24:37;19.50;;;11.10;;
74401;SDS011;62837;51.082;13.744;2023-03-20T13:27:17;17.60;;;10.00;;
74401;SDS011;62837;51.082;13.744;2023-03-20T13:29:59;17.90;;;10.40;;
74401;SDS011;62837;51.082;13.744;2023-03-20T13:32:39;21.00;;;12.10;;
74401;SDS011;62837;51.082;13.744;2023-03-20T13:35:31;19.40;;;11.80;;
74401;SDS011;62837;51.082;13.744;2023-03-20T13:38:11;19.40;;;11.10;;
74401;SDS011;62837;51.082;13.744;2023-03-20T13:40:46;18.10;;;10.90;;
74401;SDS011;62837;51.082;13.744;2023-03-20T13:43:25;19.60;;;10.80;;
74401;SDS011;62837;51.082;13.744;2023-03-20T13:46:02;21.50;;;12.00;;
74401;SDS011;62837;51.082;13.744;2023-03-20T13:48:36;20.10;;;11.30;;
74401;SDS011;62837;51.082;13.744;2023-03-20T13:51:09;18.40;;;10.50;;
74401;SDS011;62837;51.082;13.744;2023-03-20T13:53:50;24.60;;;14.10;;
74401;SDS011;62837;51.082;13.744;2023-03-20T13:56:32;27.20;;;14.90;;
74401;SDS011;62837;51.082;13.744;2023-03-20T14:05:11;18.80;;;9.90;;
74401;SDS011;62837;51.082;13.744;2023-03-20T14:07:46;20.40;;;11.00;;
74401;SDS011;62837;51.082;13.744;2023-03-20T14:10:38;19.20;;;10.80;;
74401;SDS011;62837;51.082;13.744;2023-03-20T14:13:13;18.50;;;10.80;;
74401;SDS011;62837;51.082;13.744;2023-03-20T14:15:50;22.30;;;12.50;;
74401;SDS011;62837;51.082;13.744;2023-03-20T14:18:24;21.40;;;12.70;;
74401;SDS011;62837;51.082;13.744;2023-03-20T14:20:57;17.30;;;10.40;;
74401;SDS011;62837;51.082;13.744;2023-03-20T14:23:31;17.70;;;10.60;;
74401;SDS011;62837;51.082;13.744;2023-03-20T14:26:05;16.90;;;10.50;;
74401;SDS011;62837;51.082;13.744;2023-03-20T14:28:47;19.60;;;11.20;;
74401;SDS011;62837;51.082;13.744;2023-03-20T14:31:25;19.40;;;11.20;;
74401;SDS011;62837;51.082;13.744;2023-03-20T14:34:06;20.00;;;11.20;;
74401;SDS011;62837;51.082;13.744;2023-03-20T14:36:55;21.50;;;11.10;;
74401;SDS011;62837;51.082;13.744;2023-03-20T14:39:29;22.90;;;12.80;;
74401;SDS011;62837;51.082;13.744;2023-03-20T14:42:17;17.10;;;10.60;;
74401;SDS011;62837;51.082;13.744;2023-03-20T14:45:00;22.70;;;12.10;;
74401;SDS011;62837;51.082;13.744;2023-03-20T14:47:46;21.50;;;11.80;;
74401;SDS011;62837;51.082;13.744;2023-03-20T14:50:24;24.00;;;13.20;;
74401;SDS011;62837;51.082;13.744;2023-03-20T14:53:01;22.00;;;12.10;;
74401;SDS011;62837;51.082;13.744;2023-03-20T14:55:49;17.50;;;11.50;;
74401;SDS011;62837;51.082;13.744;2023-03-20T14:58:37;24.30;;;13.70;;
74401;SDS011;62837;51.082;13.744;2023-03-20T15:01:22;20.10;;;11.50;;
74401;SDS011;62837;51.082;13.744;2023-03-20T15:03:57;27.80;;;14.40;;
74401;SDS011;62837;51.082;13.744;2023-03-20T15:06:33;23.00;;;13.80;;
74401;SDS011;62837;51.082;13.744;2023-03-20T15:09:10;26.60;;;13.50;;
74401;SDS011;62837;51.082;13.744;2023-03-20T15:11:42;22.80;;;13.30;;
74401;SDS011;62837;51.082;13.744;2023-03-20T15:14:17;28.00;;;14.10;;
74401;SDS011;62837;51.082;13.744;2023-03-20T15:19:27;26.80;;;14.20;;
74401;SDS011;62837;51.082;13.744;2023-03-20T15:22:00;24.70;;;14.70;;
74401;SDS011;62837;51.082;13.744;2023-03-20T15:24:31;28.30;;;16.60;;
74401;SDS011;62837;51.082;13.744;2023-03-20T15:27:02;26.60;;;14.60;;
74401;SDS011;62837;51.082;13.744;2023-03-20T15:29:32;30.50;;;16.00;;
74401;SDS011;62837;51.082;13.744;2023-03-20T15:32:04;26.60;;;13.80;;
74401;SDS011;62837;51.082;13.744;2023-03-20T15:34:43;24.50;;;14.00;;
74401;SDS011;62837;51.082;13.744;2023-03-20T15:37:18;27.30;;;14.80;;
74401;SDS011;62837;51.082;13.744;2023-03-20T15:39:52;25.20;;;13.50;;
74401;SDS011;62837;51.082;13.744;2023-03-20T15:42:25;24.80;;;14.50;;
74401;SDS011;62837;51.082;13.744;2023-03-20T15:44:58;14.60;;;8.90;;
74401;SDS011;62837;51.082;13.744;2023-03-20T15:47:29;24.40;;;12.50;;
74401;SDS011;62837;51.082;13.744;2023-03-20T15:50:00;25.20;;;13.20;;